• Join FlightAware (Why Join?)
  • Login
  • US Flag 
09:21AM EDT


 

Airport Tracker/Info


-or-


 

Live Flight TrackerFlight Track Log ✈ CSC8974 ✈ 13-Mar-2014 ✈ ZSPD / PVG - ZUCK / CKG

Flight Track Log - Related Links

Times and Time Zones

All times are in EDT time to prevent confusion due to time zone crossing. See the CSC8974 flight status page for this flight to view local times or setup timezone preferences in your user account.

Time Position Orientation Groundspeed Altitude Reporting Facility
EDT Latitude Longitude Course Direction KTS MPH feet Rate Location/Type
06:27AM 31.1226 121.2451 268° West  Level Estimated
06:27AM 31.3227 121.5578 259° West 298 343 14,400  Level FlightAware ADS-B (ZSSS / SHA)
06:28AM 31.1183 121.1357 267° West  Level Estimated
06:28AM 31.3127 121.4982 260° West 306 352 15,900  Level FlightAware ADS-B (ZSSS / SHA)
06:28AM 31.3046 121.4501 259° West 310 357 17,200 1,800 Climbing FlightAware ADS-B (ZSSS / SHA)
06:29AM 31.2961 121.3990 260° West 333 383 17,700 480 Climbing FlightAware ADS-B (ZSSS / SHA)
06:29AM 31.2912 121.3478 276° West 334 384 17,700  Level FlightAware ADS-B (ZSSS / SHA)
06:29AM 31.2940 121.3316 289° West 335 386 17,700 300 Level FlightAware ADS-B (ZSSS / SHA)
06:30AM 31.3012 121.3138 304° West 339 390 17,800 900 Climbing FlightAware ADS-B (ZSSS / SHA)
06:30AM 31.3319 121.2721 311° West 345 397 18,300 960 Climbing FlightAware ADS-B (ZSSS / SHA)
06:31AM 31.3656 121.2273 312° West 344 396 18,800 960 Climbing FlightAware ADS-B (ZSSS / SHA)
06:31AM 31.3902 121.1951 312° West 343 395 19,200 900 Climbing FlightAware ADS-B (ZSSS / SHA)
06:32AM 31.4249 121.1498 312° West 346 398 19,700 900 Climbing FlightAware ADS-B (ZSSS / SHA)
06:34AM 31.4122 120.9415 266° West  Level Estimated
06:35AM 31.4054 120.8319 266° West  Level Estimated
06:36AM 31.3985 120.7224 266° West  Level Estimated
06:37AM 31.3915 120.6128 266° West  Level Estimated
06:38AM 31.3844 120.5033 266° West  Level Estimated
06:39AM 31.3772 120.3938 266° West  Level Estimated
06:40AM 31.3699 120.2843 266° West  Level Estimated
06:41AM 31.3626 120.1748 266° West  Level Estimated
06:42AM 31.3551 120.0654 265° West  Level Estimated
06:43AM 31.3476 119.9559 265° West  Level Estimated
06:44AM 31.3399 119.8465 265° West  Level Estimated
06:45AM 31.3322 119.7371 265° West  Level Estimated
06:46AM 31.3243 119.6277 265° West  Level Estimated
06:47AM 31.3164 119.5183 265° West  Level Estimated
06:48AM 31.3084 119.4090 265° West  Level Estimated
06:49AM 31.3003 119.2996 265° West  Level Estimated
06:50AM 31.2921 119.1903 265° West  Level Estimated
06:51AM 31.2838 119.0810 265° West  Level Estimated
06:52AM 31.2754 118.9718 265° West  Level Estimated
06:53AM 31.2669 118.8625 265° West  Level Estimated
06:54AM 31.2583 118.7533 265° West  Level Estimated
06:55AM 31.2497 118.6441 265° West  Level Estimated
06:56AM 31.2409 118.5349 265° West  Level Estimated
06:57AM 31.2321 118.4257 265° West  Level Estimated
06:58AM 31.2231 118.3165 265° West  Level Estimated
06:59AM 31.2141 118.2074 264° West  Level Estimated
07:00AM 31.2050 118.0983 264° West  Level Estimated
07:01AM 31.1957 117.9892 264° West  Level Estimated
07:02AM 31.1864 117.8801 264° West  Level Estimated
07:03AM 31.1770 117.7710 264° West  Level Estimated
07:04AM 31.1675 117.6620 264° West  Level Estimated
07:05AM 31.1579 117.5530 264° West  Level Estimated
07:06AM 31.1483 117.4440 264° West  Level Estimated
07:07AM 31.1385 117.3351 264° West  Level Estimated
07:08AM 31.1286 117.2261 264° West  Level Estimated
07:09AM 31.1187 117.1172 264° West  Level Estimated
07:10AM 31.1086 117.0083 264° West  Level Estimated
07:11AM 31.0985 116.8995 264° West  Level Estimated
07:12AM 31.0882 116.7906 264° West  Level Estimated
07:13AM 31.0779 116.6818 264° West  Level Estimated
07:14AM 31.0675 116.5730 264° West  Level Estimated
07:15AM 31.0570 116.4642 264° West  Level Estimated
07:16AM 31.0464 116.3555 264° West  Level Estimated
07:17AM 31.0357 116.2467 263° West  Level Estimated
07:18AM 31.0250 116.1380 263° West  Level Estimated
07:19AM 31.0141 116.0293 263° West  Level Estimated
07:20AM 31.0031 115.9207 263° West  Level Estimated
07:21AM 30.9921 115.8121 263° West  Level Estimated
07:22AM 30.9809 115.7035 263° West  Level Estimated
07:23AM 30.9697 115.5949 263° West  Level Estimated
07:24AM 30.9584 115.4863 263° West  Level Estimated
07:25AM 30.9470 115.3778 263° West  Level Estimated
07:26AM 30.9355 115.2693 263° West  Level Estimated
07:27AM 30.9239 115.1608 263° West  Level Estimated
07:28AM 30.9122 115.0524 263° West  Level Estimated
07:29AM 30.9004 114.9440 263° West  Level Estimated
07:30AM 30.8885 114.8356 263° West  Level Estimated
07:31AM 30.8766 114.7272 263° West  Level Estimated
07:32AM 30.8645 114.6189 263° West  Level Estimated
07:33AM 30.8524 114.5106 263° West  Level Estimated
07:34AM 30.8402 114.4023 263° West  Level Estimated
07:35AM 30.8279 114.2940 262° West  Level Estimated
07:36AM 30.8155 114.1858 262° West  Level Estimated
07:37AM 30.8030 114.0776 262° West  Level Estimated
07:38AM 30.7904 113.9694 262° West  Level Estimated
07:39AM 30.7777 113.8613 262° West  Level Estimated
07:40AM 30.7649 113.7531 262° West  Level Estimated
07:41AM 30.7521 113.6451 262° West  Level Estimated
07:42AM 30.7391 113.5370 262° West  Level Estimated
07:43AM 30.7261 113.4290 262° West  Level Estimated
07:44AM 30.7130 113.3210 262° West  Level Estimated
07:45AM 30.6998 113.2130 262° West  Level Estimated
07:46AM 30.6864 113.1050 262° West  Level Estimated
07:47AM 30.6731 112.9971 262° West  Level Estimated
07:48AM 30.6596 112.8893 262° West  Level Estimated
07:49AM 30.6460 112.7814 262° West  Level Estimated
07:50AM 30.6324 112.6736 262° West  Level Estimated
07:51AM 30.6186 112.5658 262° West  Level Estimated
07:52AM 30.6048 112.4580 262° West  Level Estimated
07:53AM 30.5908 112.3503 261° West  Level Estimated
07:54AM 30.5768 112.2426 261° West  Level Estimated
07:55AM 30.5627 112.1349 261° West  Level Estimated
07:56AM 30.5485 112.0273 261° West  Level Estimated
07:57AM 30.5343 111.9197 261° West  Level Estimated
07:58AM 30.5199 111.8121 261° West  Level Estimated
07:59AM 30.5054 111.7046 261° West  Level Estimated
08:00AM 30.4909 111.5971 261° West  Level Estimated
08:01AM 30.4762 111.4896 261° West  Level Estimated
08:02AM 30.4615 111.3822 261° West  Level Estimated
08:03AM 30.4467 111.2748 261° West  Level Estimated
08:04AM 30.4318 111.1674 261° West  Level Estimated
08:05AM 30.4168 111.0600 261° West  Level Estimated
08:06AM 30.4018 110.9527 261° West  Level Estimated
08:07AM 30.3866 110.8455 261° West  Level Estimated
08:08AM 30.3713 110.7382 261° West  Level Estimated
08:09AM 30.3560 110.6310 261° West  Level Estimated
08:10AM 30.3406 110.5238 261° West  Level Estimated
08:11AM 30.3251 110.4167 261° West  Level Estimated
08:12AM 30.3095 110.3096 260° West  Level Estimated
08:13AM 30.2938 110.2025 260° West  Level Estimated
08:14AM 30.2780 110.0954 260° West  Level Estimated
08:15AM 30.2622 109.9884 260° West  Level Estimated
08:16AM 30.2462 109.8815 260° West  Level Estimated
08:17AM 30.2302 109.7745 260° West  Level Estimated
08:18AM 30.2141 109.6676 260° West  Level Estimated
08:19AM 30.1979 109.5608 260° West  Level Estimated
08:20AM 30.1816 109.4539 260° West  Level Estimated
08:21AM 30.1652 109.3471 260° West  Level Estimated
08:22AM 30.1487 109.2404 260° West  Level Estimated
08:23AM 30.1322 109.1336 260° West  Level Estimated
08:24AM 30.1155 109.0269 260° West  Level Estimated
08:25AM 30.0988 108.9203 260° West  Level Estimated
08:26AM 30.0820 108.8137 260° West  Level Estimated
08:27AM 30.0651 108.7071 260° West  Level Estimated
08:28AM 30.0481 108.6005 260° West  Level Estimated
08:29AM 30.0310 108.4940 260° West  Level Estimated
08:30AM 30.0139 108.3876 259° West  Level Estimated
08:31AM 29.9967 108.2811 259° West  Level Estimated
08:32AM 29.9793 108.1747 259° West  Level Estimated
08:33AM 29.9619 108.0684 259° West  Level Estimated
08:34AM 29.9444 107.9621 259° West  Level Estimated
08:35AM 29.9268 107.8558 259° West  Level Estimated
08:36AM 29.9092 107.7495 259° West  Level Estimated
08:37AM 29.8914 107.6433 259° West  Level Estimated
08:38AM 29.8736 107.5371 259° West  Level Estimated
08:39AM 29.8556 107.4310 259° West  Level Estimated
08:40AM 29.8376 107.3249 259° West  Level Estimated
08:41AM 29.8195 107.2189 259° West  Level Estimated
08:42AM 29.8014 107.1128 259° West  Level Estimated
08:43AM 29.7831 107.0069 259° West  Level Estimated
08:44AM 29.7648 106.9009 259° West  Level Estimated
08:45AM 29.7463 106.7950 259° West  Level Estimated
08:46AM 29.7278 106.6892 259° West  Level Estimated
08:47AM 29.7194 106.6410 259° West  Level Estimated
08:48AM 29.7194 106.6410 North  Level Estimated
08:49AM 29.7194 106.6410 North  Level Estimated
08:50AM 29.7194 106.6410 North  Level Estimated
08:51AM 29.7194 106.6410 North  Level Estimated
08:52AM 29.7194 106.6410 North  Level Estimated
08:53AM 29.7194 106.6410 North  Level Estimated
08:54AM 29.7194 106.6410 North  Level Estimated
08:55AM 29.7194 106.6410 North  Level Estimated
08:56AM 29.7194 106.6410 North  Level Estimated
08:57AM 29.7194 106.6410 North  Level Estimated
08:58AM 29.7194 106.6410 North  Level Estimated